sensor_id;sensor_type;location;lat;lon;timestamp;temperature;humidity
21163;DHT22;10739;52.198;20.908;2022-11-15T00:00:54;5.60;99.90
21163;DHT22;10739;52.198;20.908;2022-11-15T00:03:23;5.60;99.90
21163;DHT22;10739;52.198;20.908;2022-11-15T00:05:50;5.70;99.90
21163;DHT22;10739;52.198;20.908;2022-11-15T00:08:17;5.60;99.90
21163;DHT22;10739;52.198;20.908;2022-11-15T00:10:54;5.70;99.90
21163;DHT22;10739;52.198;20.908;2022-11-15T00:13:29;5.70;99.90
21163;DHT22;10739;52.198;20.908;2022-11-15T00:16:00;5.70;99.90
21163;DHT22;10739;52.198;20.908;2022-11-15T00:18:27;5.70;99.90
21163;DHT22;10739;52.198;20.908;2022-11-15T00:20:54;5.60;99.90
21163;DHT22;10739;52.198;20.908;2022-11-15T00:23:20;5.60;99.90
21163;DHT22;10739;52.198;20.908;2022-11-15T00:25:46;5.60;99.90
21163;DHT22;10739;52.198;20.908;2022-11-15T00:28:12;5.60;99.90
21163;DHT22;10739;52.198;20.908;2022-11-15T00:30:38;5.60;99.90
21163;DHT22;10739;52.198;20.908;2022-11-15T00:33:05;5.60;99.90
21163;DHT22;10739;52.198;20.908;2022-11-15T00:35:33;5.60;99.90
21163;DHT22;10739;52.198;20.908;2022-11-15T00:38:00;5.50;99.90
21163;DHT22;10739;52.198;20.908;2022-11-15T00:40:27;5.60;99.90
21163;DHT22;10739;52.198;20.908;2022-11-15T00:42:53;5.50;99.90
21163;DHT22;10739;52.198;20.908;2022-11-15T00:45:19;5.60;99.90
21163;DHT22;10739;52.198;20.908;2022-11-15T00:47:45;5.50;99.90
21163;DHT22;10739;52.198;20.908;2022-11-15T00:50:13;5.50;99.90
21163;DHT22;10739;52.198;20.908;2022-11-15T00:52:39;5.40;99.90
21163;DHT22;10739;52.198;20.908;2022-11-15T00:55:05;5.50;99.90
21163;DHT22;10739;52.198;20.908;2022-11-15T00:57:32;5.50;99.90
21163;DHT22;10739;52.198;20.908;2022-11-15T00:59:58;5.50;99.90
21163;DHT22;10739;52.198;20.908;2022-11-15T01:02:24;5.50;99.90
21163;DHT22;10739;52.198;20.908;2022-11-15T01:04:50;5.50;99.90
21163;DHT22;10739;52.198;20.908;2022-11-15T01:07:16;5.50;99.90
21163;DHT22;10739;52.198;20.908;2022-11-15T01:09:41;5.50;99.90
21163;DHT22;10739;52.198;20.908;2022-11-15T01:12:07;5.60;99.90
21163;DHT22;10739;52.198;20.908;2022-11-15T01:14:33;5.50;99.90
21163;DHT22;10739;52.198;20.908;2022-11-15T01:16:59;5.50;99.90
21163;DHT22;10739;52.198;20.908;2022-11-15T01:19:25;5.50;99.90
21163;DHT22;10739;52.198;20.908;2022-11-15T01:21:52;5.50;99.90
21163;DHT22;10739;52.198;20.908;2022-11-15T01:24:18;5.50;99.90
21163;DHT22;10739;52.198;20.908;2022-11-15T01:26:44;5.50;99.90
21163;DHT22;10739;52.198;20.908;2022-11-15T01:29:10;5.60;99.90
21163;DHT22;10739;52.198;20.908;2022-11-15T01:31:36;5.60;99.90
21163;DHT22;10739;52.198;20.908;2022-11-15T01:34:02;5.60;99.90
21163;DHT22;10739;52.198;20.908;2022-11-15T01:36:28;5.50;99.90
21163;DHT22;10739;52.198;20.908;2022-11-15T01:38:54;5.60;99.90
21163;DHT22;10739;52.198;20.908;2022-11-15T01:41:24;5.50;99.90
21163;DHT22;10739;52.198;20.908;2022-11-15T01:43:57;5.50;99.90
21163;DHT22;10739;52.198;20.908;2022-11-15T01:46:47;5.50;99.90
21163;DHT22;10739;52.198;20.908;2022-11-15T01:49:19;5.40;99.90
21163;DHT22;10739;52.198;20.908;2022-11-15T01:51:47;5.50;99.90
21163;DHT22;10739;52.198;20.908;2022-11-15T01:54:16;5.50;99.90
21163;DHT22;10739;52.198;20.908;2022-11-15T01:56:52;5.50;99.90
21163;DHT22;10739;52.198;20.908;2022-11-15T01:59:21;5.50;99.90
21163;DHT22;10739;52.198;20.908;2022-11-15T02:01:48;5.50;99.90
21163;DHT22;10739;52.198;20.908;2022-11-15T02:06:50;5.60;99.90
21163;DHT22;10739;52.198;20.908;2022-11-15T02:09:17;5.60;99.90
21163;DHT22;10739;52.198;20.908;2022-11-15T02:11:44;5.50;99.90
21163;DHT22;10739;52.198;20.908;2022-11-15T02:14:14;5.50;99.90
21163;DHT22;10739;52.198;20.908;2022-11-15T02:31:04;5.50;99.90
21163;DHT22;10739;52.198;20.908;2022-11-15T02:39:23;5.40;99.90
21163;DHT22;10739;52.198;20.908;2022-11-15T02:42:25;5.40;99.90
21163;DHT22;10739;52.198;20.908;2022-11-15T02:45:25;5.50;99.90
21163;DHT22;10739;52.198;20.908;2022-11-15T02:47:57;5.50;99.90
21163;DHT22;10739;52.198;20.908;2022-11-15T02:50:28;5.40;99.90
21163;DHT22;10739;52.198;20.908;2022-11-15T02:52:57;5.30;99.90
21163;DHT22;10739;52.198;20.908;2022-11-15T02:55:32;5.30;99.90
21163;DHT22;10739;52.198;20.908;2022-11-15T03:01:38;5.40;99.90
21163;DHT22;10739;52.198;20.908;2022-11-15T03:04:48;5.30;99.90
21163;DHT22;10739;52.198;20.908;2022-11-15T03:07:44;5.20;99.90
21163;DHT22;10739;52.198;20.908;2022-11-15T03:11:06;5.30;99.90
21163;DHT22;10739;52.198;20.908;2022-11-15T03:13:50;5.30;99.90
21163;DHT22;10739;52.198;20.908;2022-11-15T03:19:28;5.30;99.90
21163;DHT22;10739;52.198;20.908;2022-11-15T03:22:01;5.20;99.90
21163;DHT22;10739;52.198;20.908;2022-11-15T03:24:34;5.30;99.90
21163;DHT22;10739;52.198;20.908;2022-11-15T03:27:03;5.20;99.90
21163;DHT22;10739;52.198;20.908;2022-11-15T03:29:39;5.20;99.90
21163;DHT22;10739;52.198;20.908;2022-11-15T03:32:18;5.20;99.90
21163;DHT22;10739;52.198;20.908;2022-11-15T03:35:08;5.30;99.90
21163;DHT22;10739;52.198;20.908;2022-11-15T03:40:29;5.30;99.90
21163;DHT22;10739;52.198;20.908;2022-11-15T03:45:58;5.30;99.90
21163;DHT22;10739;52.198;20.908;2022-11-15T03:49:11;5.30;99.90
21163;DHT22;10739;52.198;20.908;2022-11-15T03:51:42;5.30;99.90
21163;DHT22;10739;52.198;20.908;2022-11-15T03:54:11;5.20;99.90
21163;DHT22;10739;52.198;20.908;2022-11-15T03:56:38;5.30;99.90
21163;DHT22;10739;52.198;20.908;2022-11-15T03:59:04;5.30;99.90
21163;DHT22;10739;52.198;20.908;2022-11-15T04:01:30;5.30;99.90
21163;DHT22;10739;52.198;20.908;2022-11-15T04:03:56;5.30;99.90
21163;DHT22;10739;52.198;20.908;2022-11-15T04:06:22;5.30;99.90
21163;DHT22;10739;52.198;20.908;2022-11-15T04:08:48;5.30;99.90
21163;DHT22;10739;52.198;20.908;2022-11-15T04:11:14;5.30;99.90
21163;DHT22;10739;52.198;20.908;2022-11-15T04:13:40;5.40;99.90
21163;DHT22;10739;52.198;20.908;2022-11-15T04:16:06;5.20;99.90
21163;DHT22;10739;52.198;20.908;2022-11-15T04:18:32;5.40;99.90
21163;DHT22;10739;52.198;20.908;2022-11-15T04:20:58;5.40;99.90
21163;DHT22;10739;52.198;20.908;2022-11-15T04:23:43;5.30;99.90
21163;DHT22;10739;52.198;20.908;2022-11-15T04:26:27;5.20;99.90
21163;DHT22;10739;52.198;20.908;2022-11-15T04:28:54;5.30;99.90
21163;DHT22;10739;52.198;20.908;2022-11-15T04:31:38;5.20;99.90
21163;DHT22;10739;52.198;20.908;2022-11-15T04:34:04;5.20;99.90
21163;DHT22;10739;52.198;20.908;2022-11-15T04:36:31;5.20;99.90
21163;DHT22;10739;52.198;20.908;2022-11-15T04:39:16;5.20;99.90
21163;DHT22;10739;52.198;20.908;2022-11-15T04:41:42;5.20;99.90
21163;DHT22;10739;52.198;20.908;2022-11-15T04:44:08;5.10;99.90
21163;DHT22;10739;52.198;20.908;2022-11-15T04:46:35;5.10;99.90
21163;DHT22;10739;52.198;20.908;2022-11-15T04:49:01;5.00;99.90
21163;DHT22;10739;52.198;20.908;2022-11-15T04:51:27;5.00;99.90
21163;DHT22;10739;52.198;20.908;2022-11-15T04:53:54;5.00;99.90
21163;DHT22;10739;52.198;20.908;2022-11-15T04:56:20;5.00;99.90
21163;DHT22;10739;52.198;20.908;2022-11-15T04:58:48;5.00;99.90
21163;DHT22;10739;52.198;20.908;2022-11-15T05:01:15;5.10;99.90
21163;DHT22;10739;52.198;20.908;2022-11-15T05:03:42;5.10;99.90
21163;DHT22;10739;52.198;20.908;2022-11-15T05:06:28;5.00;99.90
21163;DHT22;10739;52.198;20.908;2022-11-15T05:08:54;5.00;99.90
21163;DHT22;10739;52.198;20.908;2022-11-15T05:11:21;5.00;99.90
21163;DHT22;10739;52.198;20.908;2022-11-15T05:13:47;5.00;99.90
21163;DHT22;10739;52.198;20.908;2022-11-15T05:16:13;5.00;99.90
21163;DHT22;10739;52.198;20.908;2022-11-15T05:18:40;5.00;99.90
21163;DHT22;10739;52.198;20.908;2022-11-15T05:21:08;5.00;99.90
21163;DHT22;10739;52.198;20.908;2022-11-15T05:23:36;5.00;99.90
21163;DHT22;10739;52.198;20.908;2022-11-15T05:26:04;4.90;99.90
21163;DHT22;10739;52.198;20.908;2022-11-15T05:28:32;4.80;99.90
21163;DHT22;10739;52.198;20.908;2022-11-15T05:31:08;4.80;99.90
21163;DHT22;10739;52.198;20.908;2022-11-15T05:33:37;4.80;99.90
21163;DHT22;10739;52.198;20.908;2022-11-15T05:36:06;4.80;99.90
21163;DHT22;10739;52.198;20.908;2022-11-15T05:38:52;4.80;99.90
21163;DHT22;10739;52.198;20.908;2022-11-15T05:41:20;4.80;99.90
21163;DHT22;10739;52.198;20.908;2022-11-15T05:43:53;4.80;99.90
21163;DHT22;10739;52.198;20.908;2022-11-15T05:46:20;4.80;99.90
21163;DHT22;10739;52.198;20.908;2022-11-15T05:48:49;4.70;99.90
21163;DHT22;10739;52.198;20.908;2022-11-15T05:51:20;4.80;99.90
21163;DHT22;10739;52.198;20.908;2022-11-15T05:53:48;4.70;99.90
21163;DHT22;10739;52.198;20.908;2022-11-15T05:56:15;4.80;99.90
21163;DHT22;10739;52.198;20.908;2022-11-15T05:58:42;4.80;99.90
21163;DHT22;10739;52.198;20.908;2022-11-15T06:01:08;4.80;99.90
21163;DHT22;10739;52.198;20.908;2022-11-15T06:03:35;4.80;99.90
21163;DHT22;10739;52.198;20.908;2022-11-15T06:06:01;4.70;99.90
21163;DHT22;10739;52.198;20.908;2022-11-15T06:08:27;4.60;99.90
21163;DHT22;10739;52.198;20.908;2022-11-15T06:10:53;4.60;99.90
21163;DHT22;10739;52.198;20.908;2022-11-15T06:13:19;4.60;99.90
21163;DHT22;10739;52.198;20.908;2022-11-15T06:15:45;4.60;99.90
21163;DHT22;10739;52.198;20.908;2022-11-15T06:18:11;4.60;99.90
21163;DHT22;10739;52.198;20.908;2022-11-15T06:20:37;4.60;99.90
21163;DHT22;10739;52.198;20.908;2022-11-15T06:23:04;4.60;99.90
21163;DHT22;10739;52.198;20.908;2022-11-15T06:25:31;4.60;99.90
21163;DHT22;10739;52.198;20.908;2022-11-15T06:27:58;4.50;99.90
21163;DHT22;10739;52.198;20.908;2022-11-15T06:30:25;4.50;99.90
21163;DHT22;10739;52.198;20.908;2022-11-15T06:32:59;4.60;99.90
21163;DHT22;10739;52.198;20.908;2022-11-15T06:35:27;4.50;99.90
21163;DHT22;10739;52.198;20.908;2022-11-15T06:37:54;4.60;99.90
21163;DHT22;10739;52.198;20.908;2022-11-15T06:40:20;4.60;99.90
21163;DHT22;10739;52.198;20.908;2022-11-15T06:42:46;4.40;99.90
21163;DHT22;10739;52.198;20.908;2022-11-15T06:45:12;4.50;99.90
21163;DHT22;10739;52.198;20.908;2022-11-15T06:47:47;4.60;99.90
21163;DHT22;10739;52.198;20.908;2022-11-15T06:50:14;4.50;99.90
21163;DHT22;10739;52.198;20.908;2022-11-15T06:52:40;4.50;99.90
21163;DHT22;10739;52.198;20.908;2022-11-15T06:55:06;4.50;99.90
21163;DHT22;10739;52.198;20.908;2022-11-15T06:57:33;4.50;99.90
21163;DHT22;10739;52.198;20.908;2022-11-15T07:00:00;4.60;99.90
21163;DHT22;10739;52.198;20.908;2022-11-15T07:02:26;4.60;99.90
21163;DHT22;10739;52.198;20.908;2022-11-15T07:04:52;4.50;99.90
21163;DHT22;10739;52.198;20.908;2022-11-15T07:07:18;4.50;99.90
21163;DHT22;10739;52.198;20.908;2022-11-15T07:09:44;4.50;99.90
21163;DHT22;10739;52.198;20.908;2022-11-15T07:12:10;4.50;99.90
21163;DHT22;10739;52.198;20.908;2022-11-15T07:14:36;4.50;99.90
21163;DHT22;10739;52.198;20.908;2022-11-15T07:17:04;4.50;99.90
21163;DHT22;10739;52.198;20.908;2022-11-15T07:19:31;4.50;99.90
21163;DHT22;10739;52.198;20.908;2022-11-15T07:21:57;4.40;99.90
21163;DHT22;10739;52.198;20.908;2022-11-15T07:24:23;4.50;99.90
21163;DHT22;10739;52.198;20.908;2022-11-15T07:26:49;4.60;99.90
21163;DHT22;10739;52.198;20.908;2022-11-15T07:29:15;4.70;99.90
21163;DHT22;10739;52.198;20.908;2022-11-15T07:31:42;4.70;99.90
21163;DHT22;10739;52.198;20.908;2022-11-15T07:34:08;4.70;99.90
21163;DHT22;10739;52.198;20.908;2022-11-15T07:36:35;4.70;99.90
21163;DHT22;10739;52.198;20.908;2022-11-15T07:39:01;4.70;99.90
21163;DHT22;10739;52.198;20.908;2022-11-15T07:41:28;4.80;99.90
21163;DHT22;10739;52.198;20.908;2022-11-15T07:43:54;4.70;99.90
21163;DHT22;10739;52.198;20.908;2022-11-15T07:46:21;4.70;99.90
21163;DHT22;10739;52.198;20.908;2022-11-15T07:48:47;4.70;99.90
21163;DHT22;10739;52.198;20.908;2022-11-15T07:51:14;4.70;99.90
21163;DHT22;10739;52.198;20.908;2022-11-15T07:53:42;4.80;99.90
21163;DHT22;10739;52.198;20.908;2022-11-15T07:56:09;4.80;99.90
21163;DHT22;10739;52.198;20.908;2022-11-15T07:58:54;4.80;99.90
21163;DHT22;10739;52.198;20.908;2022-11-15T08:01:40;4.80;99.90
21163;DHT22;10739;52.198;20.908;2022-11-15T08:04:26;4.90;99.90
21163;DHT22;10739;52.198;20.908;2022-11-15T08:07:12;4.90;99.90
21163;DHT22;10739;52.198;20.908;2022-11-15T08:09:59;5.00;99.90
21163;DHT22;10739;52.198;20.908;2022-11-15T08:12:46;4.90;99.90
21163;DHT22;10739;52.198;20.908;2022-11-15T08:15:34;5.00;99.90
21163;DHT22;10739;52.198;20.908;2022-11-15T08:18:21;4.90;99.90
21163;DHT22;10739;52.198;20.908;2022-11-15T08:21:09;5.00;99.90
21163;DHT22;10739;52.198;20.908;2022-11-15T08:23:35;5.00;99.90
21163;DHT22;10739;52.198;20.908;2022-11-15T08:26:03;4.90;99.90
21163;DHT22;10739;52.198;20.908;2022-11-15T08:28:31;4.90;99.90
21163;DHT22;10739;52.198;20.908;2022-11-15T08:30:57;5.00;99.90
21163;DHT22;10739;52.198;20.908;2022-11-15T08:33:24;5.10;99.90
21163;DHT22;10739;52.198;20.908;2022-11-15T08:35:50;5.10;99.90
21163;DHT22;10739;52.198;20.908;2022-11-15T08:38:16;5.10;99.90
21163;DHT22;10739;52.198;20.908;2022-11-15T08:40:42;5.00;99.90
21163;DHT22;10739;52.198;20.908;2022-11-15T08:43:08;5.00;99.90
21163;DHT22;10739;52.198;20.908;2022-11-15T08:45:35;5.00;99.90
21163;DHT22;10739;52.198;20.908;2022-11-15T08:48:02;5.00;99.90
21163;DHT22;10739;52.198;20.908;2022-11-15T08:50:28;5.10;99.90
21163;DHT22;10739;52.198;20.908;2022-11-15T08:52:54;5.10;99.90
21163;DHT22;10739;52.198;20.908;2022-11-15T08:55:20;5.10;99.90
21163;DHT22;10739;52.198;20.908;2022-11-15T08:57:46;5.10;99.90
21163;DHT22;10739;52.198;20.908;2022-11-15T09:00:13;5.10;99.90
21163;DHT22;10739;52.198;20.908;2022-11-15T09:02:40;5.10;99.90
21163;DHT22;10739;52.198;20.908;2022-11-15T09:05:06;5.10;99.90
21163;DHT22;10739;52.198;20.908;2022-11-15T09:07:33;5.20;99.90
21163;DHT22;10739;52.198;20.908;2022-11-15T09:09:59;5.40;99.90
21163;DHT22;10739;52.198;20.908;2022-11-15T09:12:25;5.40;99.90
21163;DHT22;10739;52.198;20.908;2022-11-15T09:14:51;5.40;99.90
21163;DHT22;10739;52.198;20.908;2022-11-15T09:17:18;5.50;99.90
21163;DHT22;10739;52.198;20.908;2022-11-15T09:19:44;5.50;99.90
21163;DHT22;10739;52.198;20.908;2022-11-15T09:22:10;5.60;99.90
21163;DHT22;10739;52.198;20.908;2022-11-15T09:24:36;5.20;99.90
21163;DHT22;10739;52.198;20.908;2022-11-15T09:27:02;5.70;99.90
21163;DHT22;10739;52.198;20.908;2022-11-15T09:29:28;5.60;99.90
21163;DHT22;10739;52.198;20.908;2022-11-15T09:31:54;5.70;99.90
21163;DHT22;10739;52.198;20.908;2022-11-15T09:34:20;5.70;99.90
21163;DHT22;10739;52.198;20.908;2022-11-15T09:36:46;5.60;99.90
21163;DHT22;10739;52.198;20.908;2022-11-15T09:39:12;5.40;99.90
21163;DHT22;10739;52.198;20.908;2022-11-15T09:44:41;5.20;99.90
21163;DHT22;10739;52.198;20.908;2022-11-15T09:50:34;5.40;99.90
21163;DHT22;10739;52.198;20.908;2022-11-15T09:53:04;5.40;99.90
21163;DHT22;10739;52.198;20.908;2022-11-15T09:55:59;5.50;99.90
21163;DHT22;10739;52.198;20.908;2022-11-15T09:58:47;5.50;99.90
21163;DHT22;10739;52.198;20.908;2022-11-15T10:04:21;5.60;99.90
21163;DHT22;10739;52.198;20.908;2022-11-15T10:07:03;5.50;99.90
21163;DHT22;10739;52.198;20.908;2022-11-15T10:10:23;5.50;99.90
21163;DHT22;10739;52.198;20.908;2022-11-15T10:12:30;5.40;99.90
21163;DHT22;10739;52.198;20.908;2022-11-15T10:15:13;5.50;99.90
21163;DHT22;10739;52.198;20.908;2022-11-15T10:20:49;5.70;99.90
21163;DHT22;10739;52.198;20.908;2022-11-15T10:23:20;5.70;99.90
21163;DHT22;10739;52.198;20.908;2022-11-15T10:25:51;5.70;99.90
21163;DHT22;10739;52.198;20.908;2022-11-15T10:28:28;5.60;99.90
21163;DHT22;10739;52.198;20.908;2022-11-15T10:30:57;5.60;99.90
21163;DHT22;10739;52.198;20.908;2022-11-15T10:33:37;5.60;99.90
21163;DHT22;10739;52.198;20.908;2022-11-15T10:36:17;5.60;99.90
21163;DHT22;10739;52.198;20.908;2022-11-15T10:52:56;6.10;99.90
21163;DHT22;10739;52.198;20.908;2022-11-15T10:55:27;6.10;99.90
21163;DHT22;10739;52.198;20.908;2022-11-15T11:00:55;6.00;99.90
21163;DHT22;10739;52.198;20.908;2022-11-15T11:03:35;6.00;99.90
21163;DHT22;10739;52.198;20.908;2022-11-15T11:09:37;6.30;99.90
21163;DHT22;10739;52.198;20.908;2022-11-15T11:12:09;6.30;99.90
21163;DHT22;10739;52.198;20.908;2022-11-15T11:14:38;6.40;99.90
21163;DHT22;10739;52.198;20.908;2022-11-15T11:17:30;6.30;99.90
21163;DHT22;10739;52.198;20.908;2022-11-15T11:20:10;6.30;99.90
21163;DHT22;10739;52.198;20.908;2022-11-15T11:26:46;6.50;99.90
21163;DHT22;10739;52.198;20.908;2022-11-15T11:29:44;6.50;99.90
21163;DHT22;10739;52.198;20.908;2022-11-15T11:38:30;6.80;99.90
21163;DHT22;10739;52.198;20.908;2022-11-15T11:44:04;6.70;99.90
21163;DHT22;10739;52.198;20.908;2022-11-15T11:50:10;6.70;99.90
21163;DHT22;10739;52.198;20.908;2022-11-15T11:53:11;6.70;99.90
21163;DHT22;10739;52.198;20.908;2022-11-15T11:55:53;6.70;99.90
21163;DHT22;10739;52.198;20.908;2022-11-15T11:58:42;6.80;99.90
21163;DHT22;10739;52.198;20.908;2022-11-15T12:01:22;6.90;99.90
21163;DHT22;10739;52.198;20.908;2022-11-15T12:04:21;6.70;99.90
21163;DHT22;10739;52.198;20.908;2022-11-15T12:07:08;6.70;99.90
21163;DHT22;10739;52.198;20.908;2022-11-15T12:09:51;6.80;99.90
21163;DHT22;10739;52.198;20.908;2022-11-15T12:13:08;6.80;99.90
21163;DHT22;10739;52.198;20.908;2022-11-15T12:15:43;6.80;99.90
21163;DHT22;10739;52.198;20.908;2022-11-15T12:18:18;6.90;99.90
21163;DHT22;10739;52.198;20.908;2022-11-15T12:21:00;6.80;99.90
21163;DHT22;10739;52.198;20.908;2022-11-15T12:23:57;6.80;99.90
21163;DHT22;10739;52.198;20.908;2022-11-15T12:26:52;6.90;99.90
21163;DHT22;10739;52.198;20.908;2022-11-15T12:29:46;7.00;99.90
21163;DHT22;10739;52.198;20.908;2022-11-15T12:32:31;7.00;99.90
21163;DHT22;10739;52.198;20.908;2022-11-15T12:35:03;7.10;99.90
21163;DHT22;10739;52.198;20.908;2022-11-15T12:42:42;7.20;99.90
21163;DHT22;10739;52.198;20.908;2022-11-15T12:45:36;7.20;99.90
21163;DHT22;10739;52.198;20.908;2022-11-15T12:59:06;6.90;99.90
21163;DHT22;10739;52.198;20.908;2022-11-15T13:04:29;7.10;99.90
21163;DHT22;10739;52.198;20.908;2022-11-15T13:07:04;7.10;99.90
21163;DHT22;10739;52.198;20.908;2022-11-15T13:17:58;6.80;99.90
21163;DHT22;10739;52.198;20.908;2022-11-15T13:20:31;6.70;99.90
21163;DHT22;10739;52.198;20.908;2022-11-15T13:30:50;6.70;99.90
21163;DHT22;10739;52.198;20.908;2022-11-15T13:33:36;6.70;99.90
21163;DHT22;10739;52.198;20.908;2022-11-15T13:36:14;6.80;99.90
21163;DHT22;10739;52.198;20.908;2022-11-15T13:38:57;6.80;99.90
21163;DHT22;10739;52.198;20.908;2022-11-15T13:41:32;6.90;99.90
21163;DHT22;10739;52.198;20.908;2022-11-15T13:44:01;6.80;99.90
21163;DHT22;10739;52.198;20.908;2022-11-15T13:46:32;6.70;99.90
21163;DHT22;10739;52.198;20.908;2022-11-15T13:49:09;6.80;99.90
21163;DHT22;10739;52.198;20.908;2022-11-15T13:51:52;6.80;99.90
21163;DHT22;10739;52.198;20.908;2022-11-15T13:54:34;6.80;99.90
21163;DHT22;10739;52.198;20.908;2022-11-15T13:57:11;6.90;99.90
21163;DHT22;10739;52.198;20.908;2022-11-15T13:59:47;7.00;99.90
21163;DHT22;10739;52.198;20.908;2022-11-15T14:02:35;6.90;99.90
21163;DHT22;10739;52.198;20.908;2022-11-15T14:05:03;6.90;99.90
21163;DHT22;10739;52.198;20.908;2022-11-15T14:07:31;7.10;99.90
21163;DHT22;10739;52.198;20.908;2022-11-15T14:10:24;7.00;99.90
21163;DHT22;10739;52.198;20.908;2022-11-15T14:12:56;7.00;99.90
21163;DHT22;10739;52.198;20.908;2022-11-15T14:17:58;7.10;99.90
21163;DHT22;10739;52.198;20.908;2022-11-15T14:20:35;7.00;99.90
21163;DHT22;10739;52.198;20.908;2022-11-15T14:23:26;6.80;99.90
21163;DHT22;10739;52.198;20.908;2022-11-15T14:25:57;6.80;99.90
21163;DHT22;10739;52.198;20.908;2022-11-15T14:30:53;6.70;99.90
21163;DHT22;10739;52.198;20.908;2022-11-15T14:33:37;6.70;99.90
21163;DHT22;10739;52.198;20.908;2022-11-15T14:36:14;6.80;99.90
21163;DHT22;10739;52.198;20.908;2022-11-15T14:38:43;6.70;99.90
21163;DHT22;10739;52.198;20.908;2022-11-15T14:41:25;6.80;99.90
21163;DHT22;10739;52.198;20.908;2022-11-15T14:43:58;6.80;99.90
21163;DHT22;10739;52.198;20.908;2022-11-15T14:46:24;6.70;99.90
21163;DHT22;10739;52.198;20.908;2022-11-15T14:48:50;6.80;99.90
21163;DHT22;10739;52.198;20.908;2022-11-15T14:51:17;6.70;99.90
21163;DHT22;10739;52.198;20.908;2022-11-15T14:53:44;6.60;99.90
21163;DHT22;10739;52.198;20.908;2022-11-15T14:56:12;6.70;99.90
21163;DHT22;10739;52.198;20.908;2022-11-15T14:58:39;6.80;99.90
21163;DHT22;10739;52.198;20.908;2022-11-15T15:01:25;6.70;99.90
21163;DHT22;10739;52.198;20.908;2022-11-15T15:03:53;6.60;99.90
21163;DHT22;10739;52.198;20.908;2022-11-15T15:06:24;6.60;99.90
21163;DHT22;10739;52.198;20.908;2022-11-15T15:08:50;6.60;99.90
21163;DHT22;10739;52.198;20.908;2022-11-15T15:11:23;6.70;99.90
21163;DHT22;10739;52.198;20.908;2022-11-15T15:13:52;6.60;99.90
21163;DHT22;10739;52.198;20.908;2022-11-15T15:16:19;6.60;99.90
21163;DHT22;10739;52.198;20.908;2022-11-15T15:18:45;6.50;99.90
21163;DHT22;10739;52.198;20.908;2022-11-15T15:21:23;6.50;99.90
21163;DHT22;10739;52.198;20.908;2022-11-15T15:23:51;6.60;99.90
21163;DHT22;10739;52.198;20.908;2022-11-15T15:26:22;6.60;99.90
21163;DHT22;10739;52.198;20.908;2022-11-15T15:28:49;6.50;99.90
21163;DHT22;10739;52.198;20.908;2022-11-15T15:31:17;6.60;99.90
21163;DHT22;10739;52.198;20.908;2022-11-15T15:33:44;6.50;99.90
21163;DHT22;10739;52.198;20.908;2022-11-15T15:36:12;6.30;99.90
21163;DHT22;10739;52.198;20.908;2022-11-15T15:38:39;6.40;99.90
21163;DHT22;10739;52.198;20.908;2022-11-15T15:41:14;6.40;99.90
21163;DHT22;10739;52.198;20.908;2022-11-15T15:43:42;6.30;99.90
21163;DHT22;10739;52.198;20.908;2022-11-15T15:46:14;6.40;99.90
21163;DHT22;10739;52.198;20.908;2022-11-15T15:48:42;6.40;99.90
21163;DHT22;10739;52.198;20.908;2022-11-15T15:51:09;6.40;99.90
21163;DHT22;10739;52.198;20.908;2022-11-15T15:53:35;6.40;99.90
21163;DHT22;10739;52.198;20.908;2022-11-15T15:56:02;6.50;99.90
21163;DHT22;10739;52.198;20.908;2022-11-15T15:58:28;6.50;99.90
21163;DHT22;10739;52.198;20.908;2022-11-15T16:00:54;6.70;99.90
21163;DHT22;10739;52.198;20.908;2022-11-15T16:03:20;6.70;99.90
21163;DHT22;10739;52.198;20.908;2022-11-15T16:05:50;6.60;99.90
21163;DHT22;10739;52.198;20.908;2022-11-15T16:08:21;6.50;99.90
21163;DHT22;10739;52.198;20.908;2022-11-15T16:10:49;6.40;99.90
21163;DHT22;10739;52.198;20.908;2022-11-15T16:13:16;6.40;99.90
21163;DHT22;10739;52.198;20.908;2022-11-15T16:15:43;6.40;99.90
21163;DHT22;10739;52.198;20.908;2022-11-15T16:18:15;6.30;99.90
21163;DHT22;10739;52.198;20.908;2022-11-15T16:20:47;6.30;99.90
21163;DHT22;10739;52.198;20.908;2022-11-15T16:23:20;6.20;99.90
21163;DHT22;10739;52.198;20.908;2022-11-15T16:25:53;6.20;99.90
21163;DHT22;10739;52.198;20.908;2022-11-15T16:28:26;6.30;99.90
21163;DHT22;10739;52.198;20.908;2022-11-15T16:31:01;6.20;99.90
21163;DHT22;10739;52.198;20.908;2022-11-15T16:33:29;6.20;99.90
21163;DHT22;10739;52.198;20.908;2022-11-15T16:35:55;6.20;99.90
21163;DHT22;10739;52.198;20.908;2022-11-15T16:38:21;6.20;99.90
21163;DHT22;10739;52.198;20.908;2022-11-15T16:40:48;6.20;99.90
21163;DHT22;10739;52.198;20.908;2022-11-15T16:43:16;6.30;99.90
21163;DHT22;10739;52.198;20.908;2022-11-15T16:45:42;6.30;99.90
21163;DHT22;10739;52.198;20.908;2022-11-15T16:48:21;6.30;99.90
21163;DHT22;10739;52.198;20.908;2022-11-15T16:50:57;6.30;99.90
21163;DHT22;10739;52.198;20.908;2022-11-15T16:53:25;6.20;99.90
21163;DHT22;10739;52.198;20.908;2022-11-15T16:55:53;6.10;99.90
21163;DHT22;10739;52.198;20.908;2022-11-15T16:58:19;6.10;99.90
21163;DHT22;10739;52.198;20.908;2022-11-15T17:00:52;6.10;99.90
21163;DHT22;10739;52.198;20.908;2022-11-15T17:03:22;6.10;99.90
21163;DHT22;10739;52.198;20.908;2022-11-15T17:05:49;6.20;99.90
21163;DHT22;10739;52.198;20.908;2022-11-15T17:08:24;6.10;99.90
21163;DHT22;10739;52.198;20.908;2022-11-15T17:10:51;6.10;99.90
21163;DHT22;10739;52.198;20.908;2022-11-15T17:13:17;6.00;99.90
21163;DHT22;10739;52.198;20.908;2022-11-15T17:15:44;6.00;99.90
21163;DHT22;10739;52.198;20.908;2022-11-15T17:18:11;6.10;99.90
21163;DHT22;10739;52.198;20.908;2022-11-15T17:20:39;6.20;99.90
21163;DHT22;10739;52.198;20.908;2022-11-15T17:23:12;6.20;99.90
21163;DHT22;10739;52.198;20.908;2022-11-15T17:25:39;6.10;99.90
21163;DHT22;10739;52.198;20.908;2022-11-15T17:28:05;6.20;99.90
21163;DHT22;10739;52.198;20.908;2022-11-15T17:30:31;6.20;99.90
21163;DHT22;10739;52.198;20.908;2022-11-15T17:32:57;6.20;99.90
21163;DHT22;10739;52.198;20.908;2022-11-15T17:35:23;6.10;99.90
21163;DHT22;10739;52.198;20.908;2022-11-15T17:37:49;6.10;99.90
21163;DHT22;10739;52.198;20.908;2022-11-15T17:40:15;6.10;99.90
21163;DHT22;10739;52.198;20.908;2022-11-15T17:42:41;6.00;99.90
21163;DHT22;10739;52.198;20.908;2022-11-15T17:45:09;6.10;99.90
21163;DHT22;10739;52.198;20.908;2022-11-15T17:47:36;6.00;99.90
21163;DHT22;10739;52.198;20.908;2022-11-15T17:50:03;5.90;99.90
21163;DHT22;10739;52.198;20.908;2022-11-15T17:52:29;5.80;99.90
21163;DHT22;10739;52.198;20.908;2022-11-15T17:54:55;5.80;99.90
21163;DHT22;10739;52.198;20.908;2022-11-15T17:57:21;5.80;99.90
21163;DHT22;10739;52.198;20.908;2022-11-15T17:59:47;5.70;99.90
21163;DHT22;10739;52.198;20.908;2022-11-15T18:02:13;5.80;99.90